sensor_id;sensor_type;location;lat;lon;timestamp;P1;durP1;ratioP1;P2;durP2;ratioP2
41436;SDS011;27178;49.460;10.850;2023-05-16T00:02:19;5.10;;;4.15;;
41436;SDS011;27178;49.460;10.850;2023-05-16T00:04:47;5.03;;;4.28;;
41436;SDS011;27178;49.460;10.850;2023-05-16T00:07:16;4.72;;;4.32;;
41436;SDS011;27178;49.460;10.850;2023-05-16T00:09:44;4.93;;;4.53;;
41436;SDS011;27178;49.460;10.850;2023-05-16T00:12:13;4.15;;;3.85;;
41436;SDS011;27178;49.460;10.850;2023-05-16T00:14:44;5.22;;;4.75;;
41436;SDS011;27178;49.460;10.850;2023-05-16T00:17:13;4.88;;;4.00;;
41436;SDS011;27178;49.460;10.850;2023-05-16T00:19:42;5.18;;;4.68;;
41436;SDS011;27178;49.460;10.850;2023-05-16T00:22:14;4.70;;;4.30;;
41436;SDS011;27178;49.460;10.850;2023-05-16T00:24:43;4.75;;;4.35;;
41436;SDS011;27178;49.460;10.850;2023-05-16T00:27:11;5.18;;;4.25;;
41436;SDS011;27178;49.460;10.850;2023-05-16T00:29:40;4.63;;;4.30;;
41436;SDS011;27178;49.460;10.850;2023-05-16T00:32:10;6.57;;;4.75;;
41436;SDS011;27178;49.460;10.850;2023-05-16T00:34:38;5.15;;;4.75;;
41436;SDS011;27178;49.460;10.850;2023-05-16T00:37:07;5.60;;;5.10;;
41436;SDS011;27178;49.460;10.850;2023-05-16T00:39:35;4.38;;;4.07;;
41436;SDS011;27178;49.460;10.850;2023-05-16T00:42:04;5.00;;;4.60;;
41436;SDS011;27178;49.460;10.850;2023-05-16T00:44:32;5.07;;;4.57;;
41436;SDS011;27178;49.460;10.850;2023-05-16T00:47:00;5.80;;;5.28;;
41436;SDS011;27178;49.460;10.850;2023-05-16T00:49:31;6.65;;;4.80;;
41436;SDS011;27178;49.460;10.850;2023-05-16T00:51:59;4.80;;;4.32;;
41436;SDS011;27178;49.460;10.850;2023-05-16T00:54:27;4.97;;;4.57;;
41436;SDS011;27178;49.460;10.850;2023-05-16T00:56:57;5.13;;;4.65;;
41436;SDS011;27178;49.460;10.850;2023-05-16T00:59:26;4.93;;;4.53;;
41436;SDS011;27178;49.460;10.850;2023-05-16T01:01:55;5.10;;;4.55;;
41436;SDS011;27178;49.460;10.850;2023-05-16T01:04:23;5.32;;;4.75;;
41436;SDS011;27178;49.460;10.850;2023-05-16T01:06:55;5.22;;;4.72;;
41436;SDS011;27178;49.460;10.850;2023-05-16T01:09:24;4.78;;;4.38;;
41436;SDS011;27178;49.460;10.850;2023-05-16T01:11:55;5.40;;;4.90;;
41436;SDS011;27178;49.460;10.850;2023-05-16T01:14:34;7.47;;;4.90;;
41436;SDS011;27178;49.460;10.850;2023-05-16T01:17:10;5.15;;;4.75;;
41436;SDS011;27178;49.460;10.850;2023-05-16T01:19:50;5.25;;;4.85;;
41436;SDS011;27178;49.460;10.850;2023-05-16T01:22:34;4.88;;;4.53;;
41436;SDS011;27178;49.460;10.850;2023-05-16T01:25:15;5.15;;;4.65;;
41436;SDS011;27178;49.460;10.850;2023-05-16T01:27:59;5.25;;;4.80;;
41436;SDS011;27178;49.460;10.850;2023-05-16T01:30:31;5.22;;;4.72;;
41436;SDS011;27178;49.460;10.850;2023-05-16T01:33:01;5.28;;;4.80;;
41436;SDS011;27178;49.460;10.850;2023-05-16T01:35:30;5.57;;;4.70;;
41436;SDS011;27178;49.460;10.850;2023-05-16T01:38:00;4.88;;;4.47;;
41436;SDS011;27178;49.460;10.850;2023-05-16T01:40:35;5.53;;;5.03;;
41436;SDS011;27178;49.460;10.850;2023-05-16T01:43:12;5.40;;;4.90;;
41436;SDS011;27178;49.460;10.850;2023-05-16T01:45:46;4.78;;;4.38;;
41436;SDS011;27178;49.460;10.850;2023-05-16T01:48:19;5.10;;;4.70;;
41436;SDS011;27178;49.460;10.850;2023-05-16T01:50:51;4.82;;;4.43;;
41436;SDS011;27178;49.460;10.850;2023-05-16T01:53:24;5.90;;;5.50;;
41436;SDS011;27178;49.460;10.850;2023-05-16T01:55:56;5.68;;;4.82;;
41436;SDS011;27178;49.460;10.850;2023-05-16T01:58:29;5.72;;;5.22;;
41436;SDS011;27178;49.460;10.850;2023-05-16T02:01:00;5.25;;;4.85;;
41436;SDS011;27178;49.460;10.850;2023-05-16T02:03:30;5.15;;;4.68;;
41436;SDS011;27178;49.460;10.850;2023-05-16T02:05:59;4.65;;;4.35;;
41436;SDS011;27178;49.460;10.850;2023-05-16T02:08:27;5.18;;;4.78;;
41436;SDS011;27178;49.460;10.850;2023-05-16T02:10:56;5.13;;;4.70;;
41436;SDS011;27178;49.460;10.850;2023-05-16T02:13:24;5.10;;;4.70;;
41436;SDS011;27178;49.460;10.850;2023-05-16T02:15:54;5.82;;;5.25;;
41436;SDS011;27178;49.460;10.850;2023-05-16T02:18:22;5.70;;;5.13;;
41436;SDS011;27178;49.460;10.850;2023-05-16T02:20:51;5.45;;;4.90;;
41436;SDS011;27178;49.460;10.850;2023-05-16T02:23:20;5.22;;;4.82;;
41436;SDS011;27178;49.460;10.850;2023-05-16T02:25:48;4.97;;;4.57;;
41436;SDS011;27178;49.460;10.850;2023-05-16T02:28:16;5.40;;;5.00;;
41436;SDS011;27178;49.460;10.850;2023-05-16T02:30:45;5.40;;;5.00;;
41436;SDS011;27178;49.460;10.850;2023-05-16T02:33:24;5.28;;;4.78;;
41436;SDS011;27178;49.460;10.850;2023-05-16T02:35:53;5.47;;;4.97;;
41436;SDS011;27178;49.460;10.850;2023-05-16T02:38:21;5.22;;;4.82;;
41436;SDS011;27178;49.460;10.850;2023-05-16T02:40:50;5.68;;;5.18;;
41436;SDS011;27178;49.460;10.850;2023-05-16T02:43:18;5.70;;;5.20;;
41436;SDS011;27178;49.460;10.850;2023-05-16T02:45:47;5.22;;;4.82;;
41436;SDS011;27178;49.460;10.850;2023-05-16T02:48:15;5.80;;;5.22;;
41436;SDS011;27178;49.460;10.850;2023-05-16T02:50:45;5.38;;;4.88;;
41436;SDS011;27178;49.460;10.850;2023-05-16T02:53:13;5.85;;;5.35;;
41436;SDS011;27178;49.460;10.850;2023-05-16T02:55:42;7.25;;;5.57;;
41436;SDS011;27178;49.460;10.850;2023-05-16T02:58:11;6.05;;;5.55;;
41436;SDS011;27178;49.460;10.850;2023-05-16T03:00:40;5.80;;;5.40;;
41436;SDS011;27178;49.460;10.850;2023-05-16T03:03:08;5.95;;;5.45;;
41436;SDS011;27178;49.460;10.850;2023-05-16T03:05:36;5.53;;;5.13;;
41436;SDS011;27178;49.460;10.850;2023-05-16T03:08:06;5.55;;;5.15;;
41436;SDS011;27178;49.460;10.850;2023-05-16T03:10:34;5.85;;;5.35;;
41436;SDS011;27178;49.460;10.850;2023-05-16T03:13:02;5.95;;;5.47;;
41436;SDS011;27178;49.460;10.850;2023-05-16T03:15:31;6.00;;;5.45;;
41436;SDS011;27178;49.460;10.850;2023-05-16T03:17:59;6.28;;;5.85;;
41436;SDS011;27178;49.460;10.850;2023-05-16T03:20:27;6.65;;;6.05;;
41436;SDS011;27178;49.460;10.850;2023-05-16T03:22:56;6.18;;;5.60;;
41436;SDS011;27178;49.460;10.850;2023-05-16T03:25:25;6.75;;;6.20;;
41436;SDS011;27178;49.460;10.850;2023-05-16T03:27:54;6.05;;;5.55;;
41436;SDS011;27178;49.460;10.850;2023-05-16T03:30:23;5.82;;;5.30;;
41436;SDS011;27178;49.460;10.850;2023-05-16T03:32:51;6.03;;;5.53;;
41436;SDS011;27178;49.460;10.850;2023-05-16T03:35:20;5.93;;;5.43;;
41436;SDS011;27178;49.460;10.850;2023-05-16T03:37:50;6.07;;;5.53;;
41436;SDS011;27178;49.460;10.850;2023-05-16T03:40:18;5.70;;;5.30;;
41436;SDS011;27178;49.460;10.850;2023-05-16T03:42:49;6.35;;;5.75;;
41436;SDS011;27178;49.460;10.850;2023-05-16T03:45:17;6.40;;;5.90;;
41436;SDS011;27178;49.460;10.850;2023-05-16T03:47:47;6.55;;;6.00;;
41436;SDS011;27178;49.460;10.850;2023-05-16T03:50:16;6.68;;;6.18;;
41436;SDS011;27178;49.460;10.850;2023-05-16T03:52:45;6.47;;;5.97;;
41436;SDS011;27178;49.460;10.850;2023-05-16T03:55:13;6.97;;;6.38;;
41436;SDS011;27178;49.460;10.850;2023-05-16T03:57:42;6.25;;;5.70;;
41436;SDS011;27178;49.460;10.850;2023-05-16T04:00:12;7.00;;;6.32;;
41436;SDS011;27178;49.460;10.850;2023-05-16T04:02:41;6.20;;;5.70;;
41436;SDS011;27178;49.460;10.850;2023-05-16T04:05:10;6.03;;;5.63;;
41436;SDS011;27178;49.460;10.850;2023-05-16T04:07:39;6.30;;;5.80;;
41436;SDS011;27178;49.460;10.850;2023-05-16T04:10:08;6.47;;;5.97;;
41436;SDS011;27178;49.460;10.850;2023-05-16T04:12:37;6.25;;;5.65;;
41436;SDS011;27178;49.460;10.850;2023-05-16T04:15:05;6.20;;;5.60;;
41436;SDS011;27178;49.460;10.850;2023-05-16T04:17:35;6.32;;;5.82;;
41436;SDS011;27178;49.460;10.850;2023-05-16T04:20:04;6.68;;;5.97;;
41436;SDS011;27178;49.460;10.850;2023-05-16T04:22:33;6.18;;;5.78;;
41436;SDS011;27178;49.460;10.850;2023-05-16T04:25:01;7.78;;;5.72;;
41436;SDS011;27178;49.460;10.850;2023-05-16T04:27:30;6.85;;;6.25;;
41436;SDS011;27178;49.460;10.850;2023-05-16T04:29:59;6.43;;;5.93;;
41436;SDS011;27178;49.460;10.850;2023-05-16T04:32:28;6.60;;;6.10;;
41436;SDS011;27178;49.460;10.850;2023-05-16T04:34:57;7.15;;;6.55;;
41436;SDS011;27178;49.460;10.850;2023-05-16T04:37:26;7.32;;;6.72;;
41436;SDS011;27178;49.460;10.850;2023-05-16T04:39:54;7.13;;;6.53;;
41436;SDS011;27178;49.460;10.850;2023-05-16T04:42:23;7.65;;;6.85;;
41436;SDS011;27178;49.460;10.850;2023-05-16T04:44:51;6.13;;;5.70;;
41436;SDS011;27178;49.460;10.850;2023-05-16T04:47:20;6.32;;;5.82;;
41436;SDS011;27178;49.460;10.850;2023-05-16T04:49:48;6.60;;;6.03;;
41436;SDS011;27178;49.460;10.850;2023-05-16T04:52:18;6.25;;;5.75;;
41436;SDS011;27178;49.460;10.850;2023-05-16T04:54:49;6.43;;;5.93;;
41436;SDS011;27178;49.460;10.850;2023-05-16T04:57:17;6.47;;;5.90;;
41436;SDS011;27178;49.460;10.850;2023-05-16T04:59:46;6.53;;;5.57;;
41436;SDS011;27178;49.460;10.850;2023-05-16T05:02:14;7.07;;;6.38;;
41436;SDS011;27178;49.460;10.850;2023-05-16T05:04:42;6.85;;;6.07;;
41436;SDS011;27178;49.460;10.850;2023-05-16T05:07:10;6.53;;;5.93;;
41436;SDS011;27178;49.460;10.850;2023-05-16T05:09:41;7.03;;;6.53;;
41436;SDS011;27178;49.460;10.850;2023-05-16T05:12:09;7.50;;;6.90;;
41436;SDS011;27178;49.460;10.850;2023-05-16T05:14:38;6.53;;;5.88;;
41436;SDS011;27178;49.460;10.850;2023-05-16T05:17:06;6.35;;;5.85;;
41436;SDS011;27178;49.460;10.850;2023-05-16T05:19:34;6.75;;;6.05;;
41436;SDS011;27178;49.460;10.850;2023-05-16T05:22:03;6.95;;;6.45;;
41436;SDS011;27178;49.460;10.850;2023-05-16T05:24:32;6.25;;;5.85;;
41436;SDS011;27178;49.460;10.850;2023-05-16T05:27:01;7.55;;;6.38;;
41436;SDS011;27178;49.460;10.850;2023-05-16T05:29:30;7.10;;;6.30;;
41436;SDS011;27178;49.460;10.850;2023-05-16T05:31:58;7.75;;;7.15;;
41436;SDS011;27178;49.460;10.850;2023-05-16T05:34:27;7.10;;;6.50;;
41436;SDS011;27178;49.460;10.850;2023-05-16T05:36:56;7.63;;;7.03;;
41436;SDS011;27178;49.460;10.850;2023-05-16T05:39:24;8.05;;;7.35;;
41436;SDS011;27178;49.460;10.850;2023-05-16T05:41:53;7.38;;;6.65;;
41436;SDS011;27178;49.460;10.850;2023-05-16T05:44:23;7.07;;;6.53;;
41436;SDS011;27178;49.460;10.850;2023-05-16T05:46:51;7.13;;;6.53;;
41436;SDS011;27178;49.460;10.850;2023-05-16T05:49:19;7.63;;;6.97;;
41436;SDS011;27178;49.460;10.850;2023-05-16T05:51:48;7.93;;;7.32;;
41436;SDS011;27178;49.460;10.850;2023-05-16T05:54:18;7.72;;;7.13;;
41436;SDS011;27178;49.460;10.850;2023-05-16T05:56:46;7.57;;;6.97;;
41436;SDS011;27178;49.460;10.850;2023-05-16T05:59:14;7.72;;;7.13;;
41436;SDS011;27178;49.460;10.850;2023-05-16T06:01:44;7.68;;;6.90;;
41436;SDS011;27178;49.460;10.850;2023-05-16T06:04:12;7.78;;;7.18;;
41436;SDS011;27178;49.460;10.850;2023-05-16T06:06:40;7.80;;;7.20;;
41436;SDS011;27178;49.460;10.850;2023-05-16T06:09:08;7.28;;;6.68;;
41436;SDS011;27178;49.460;10.850;2023-05-16T06:11:38;7.43;;;6.78;;
41436;SDS011;27178;49.460;10.850;2023-05-16T06:14:06;7.30;;;6.60;;
41436;SDS011;27178;49.460;10.850;2023-05-16T06:16:34;7.30;;;6.60;;
41436;SDS011;27178;49.460;10.850;2023-05-16T06:19:03;6.88;;;6.30;;
41436;SDS011;27178;49.460;10.850;2023-05-16T06:21:32;6.90;;;6.35;;
41436;SDS011;27178;49.460;10.850;2023-05-16T06:24:00;7.80;;;7.20;;
41436;SDS011;27178;49.460;10.850;2023-05-16T06:26:28;7.20;;;6.50;;
41436;SDS011;27178;49.460;10.850;2023-05-16T06:28:57;6.70;;;6.20;;
41436;SDS011;27178;49.460;10.850;2023-05-16T06:31:25;6.43;;;6.00;;
41436;SDS011;27178;49.460;10.850;2023-05-16T06:33:54;6.70;;;6.10;;
41436;SDS011;27178;49.460;10.850;2023-05-16T06:36:23;6.95;;;6.35;;
41436;SDS011;27178;49.460;10.850;2023-05-16T06:38:51;6.45;;;5.82;;
41436;SDS011;27178;49.460;10.850;2023-05-16T06:41:20;7.30;;;6.70;;
41436;SDS011;27178;49.460;10.850;2023-05-16T06:43:48;7.00;;;6.40;;
41436;SDS011;27178;49.460;10.850;2023-05-16T06:46:16;7.07;;;6.47;;
41436;SDS011;27178;49.460;10.850;2023-05-16T06:48:45;6.97;;;6.05;;
41436;SDS011;27178;49.460;10.850;2023-05-16T06:51:14;6.90;;;6.40;;
41436;SDS011;27178;49.460;10.850;2023-05-16T06:53:43;6.28;;;5.78;;
41436;SDS011;27178;49.460;10.850;2023-05-16T06:56:12;6.43;;;5.85;;
41436;SDS011;27178;49.460;10.850;2023-05-16T06:58:41;7.35;;;6.75;;
41436;SDS011;27178;49.460;10.850;2023-05-16T07:01:09;6.95;;;6.45;;
41436;SDS011;27178;49.460;10.850;2023-05-16T07:03:38;7.80;;;7.05;;
41436;SDS011;27178;49.460;10.850;2023-05-16T07:06:06;6.85;;;6.07;;
41436;SDS011;27178;49.460;10.850;2023-05-16T07:08:35;6.55;;;6.05;;
41436;SDS011;27178;49.460;10.850;2023-05-16T07:11:05;6.97;;;6.38;;
41436;SDS011;27178;49.460;10.850;2023-05-16T07:13:33;6.93;;;6.43;;
41436;SDS011;27178;49.460;10.850;2023-05-16T07:16:02;6.70;;;6.20;;
41436;SDS011;27178;49.460;10.850;2023-05-16T07:18:30;7.88;;;7.28;;
41436;SDS011;27178;49.460;10.850;2023-05-16T07:20:59;6.85;;;6.35;;
41436;SDS011;27178;49.460;10.850;2023-05-16T07:23:27;7.20;;;6.60;;
41436;SDS011;27178;49.460;10.850;2023-05-16T07:25:55;6.95;;;6.45;;
41436;SDS011;27178;49.460;10.850;2023-05-16T07:28:26;7.57;;;6.95;;
41436;SDS011;27178;49.460;10.850;2023-05-16T07:30:54;7.05;;;6.50;;
41436;SDS011;27178;49.460;10.850;2023-05-16T07:33:24;7.13;;;6.63;;
41436;SDS011;27178;49.460;10.850;2023-05-16T07:35:52;7.38;;;6.78;;
41436;SDS011;27178;49.460;10.850;2023-05-16T07:38:40;7.10;;;6.50;;
41436;SDS011;27178;49.460;10.850;2023-05-16T07:41:08;7.78;;;7.18;;
41436;SDS011;27178;49.460;10.850;2023-05-16T07:43:38;7.22;;;6.55;;
41436;SDS011;27178;49.460;10.850;2023-05-16T07:46:06;8.15;;;6.97;;
41436;SDS011;27178;49.460;10.850;2023-05-16T07:48:35;7.97;;;7.20;;
41436;SDS011;27178;49.460;10.850;2023-05-16T07:51:03;8.20;;;7.45;;
41436;SDS011;27178;49.460;10.850;2023-05-16T07:53:32;7.63;;;7.03;;
41436;SDS011;27178;49.460;10.850;2023-05-16T07:56:01;7.50;;;6.75;;
41436;SDS011;27178;49.460;10.850;2023-05-16T07:58:29;7.97;;;7.18;;
41436;SDS011;27178;49.460;10.850;2023-05-16T08:00:59;7.80;;;7.10;;
41436;SDS011;27178;49.460;10.850;2023-05-16T08:03:28;7.78;;;7.07;;
41436;SDS011;27178;49.460;10.850;2023-05-16T08:05:57;8.20;;;7.50;;
41436;SDS011;27178;49.460;10.850;2023-05-16T08:08:25;7.47;;;6.88;;
41436;SDS011;27178;49.460;10.850;2023-05-16T08:10:54;7.50;;;6.85;;
41436;SDS011;27178;49.460;10.850;2023-05-16T08:13:22;7.85;;;7.25;;
41436;SDS011;27178;49.460;10.850;2023-05-16T08:15:50;7.47;;;6.88;;
41436;SDS011;27178;49.460;10.850;2023-05-16T08:18:20;7.88;;;7.28;;
41436;SDS011;27178;49.460;10.850;2023-05-16T08:20:49;7.55;;;6.95;;
41436;SDS011;27178;49.460;10.850;2023-05-16T08:23:18;7.97;;;7.32;;
41436;SDS011;27178;49.460;10.850;2023-05-16T08:25:46;8.05;;;7.30;;
41436;SDS011;27178;49.460;10.850;2023-05-16T08:28:16;7.57;;;6.88;;
41436;SDS011;27178;49.460;10.850;2023-05-16T08:30:44;8.38;;;7.68;;
41436;SDS011;27178;49.460;10.850;2023-05-16T08:33:13;7.63;;;7.07;;
41436;SDS011;27178;49.460;10.850;2023-05-16T08:35:43;9.30;;;7.85;;
41436;SDS011;27178;49.460;10.850;2023-05-16T08:38:12;8.35;;;7.65;;
41436;SDS011;27178;49.460;10.850;2023-05-16T08:40:41;7.75;;;7.05;;
41436;SDS011;27178;49.460;10.850;2023-05-16T08:43:10;8.13;;;7.53;;
41436;SDS011;27178;49.460;10.850;2023-05-16T08:45:39;8.07;;;7.47;;
41436;SDS011;27178;49.460;10.850;2023-05-16T08:48:08;8.20;;;7.60;;
41436;SDS011;27178;49.460;10.850;2023-05-16T08:50:37;7.45;;;6.85;;
41436;SDS011;27178;49.460;10.850;2023-05-16T08:53:10;7.40;;;6.80;;
41436;SDS011;27178;49.460;10.850;2023-05-16T08:55:41;7.78;;;7.07;;
41436;SDS011;27178;49.460;10.850;2023-05-16T08:58:10;7.95;;;7.35;;
41436;SDS011;27178;49.460;10.850;2023-05-16T09:00:40;7.97;;;7.32;;
41436;SDS011;27178;49.460;10.850;2023-05-16T09:03:09;7.85;;;7.05;;
41436;SDS011;27178;49.460;10.850;2023-05-16T09:05:38;7.78;;;7.15;;
41436;SDS011;27178;49.460;10.850;2023-05-16T09:08:09;7.78;;;7.18;;
41436;SDS011;27178;49.460;10.850;2023-05-16T09:10:37;8.50;;;7.82;;
41436;SDS011;27178;49.460;10.850;2023-05-16T09:13:06;8.77;;;7.97;;
41436;SDS011;27178;49.460;10.850;2023-05-16T09:15:34;8.43;;;7.72;;
41436;SDS011;27178;49.460;10.850;2023-05-16T09:18:03;8.45;;;7.85;;
41436;SDS011;27178;49.460;10.850;2023-05-16T09:20:31;8.35;;;7.55;;
41436;SDS011;27178;49.460;10.850;2023-05-16T09:23:00;8.77;;;8.18;;
41436;SDS011;27178;49.460;10.850;2023-05-16T09:25:30;8.38;;;7.63;;
41436;SDS011;27178;49.460;10.850;2023-05-16T09:27:59;8.40;;;7.78;;
41436;SDS011;27178;49.460;10.850;2023-05-16T09:30:29;8.07;;;7.28;;
41436;SDS011;27178;49.460;10.850;2023-05-16T09:33:00;8.38;;;7.57;;
41436;SDS011;27178;49.460;10.850;2023-05-16T09:35:29;8.20;;;7.50;;
41436;SDS011;27178;49.460;10.850;2023-05-16T09:38:01;7.47;;;6.93;;
41436;SDS011;27178;49.460;10.850;2023-05-16T09:40:30;10.27;;;7.63;;
41436;SDS011;27178;49.460;10.850;2023-05-16T09:43:02;8.38;;;7.60;;
41436;SDS011;27178;49.460;10.850;2023-05-16T09:45:32;8.27;;;7.60;;
41436;SDS011;27178;49.460;10.850;2023-05-16T09:48:02;8.27;;;7.63;;
41436;SDS011;27178;49.460;10.850;2023-05-16T09:50:32;7.80;;;7.10;;
41436;SDS011;27178;49.460;10.850;2023-05-16T09:53:01;8.00;;;7.30;;
41436;SDS011;27178;49.460;10.850;2023-05-16T09:55:31;8.57;;;7.88;;
41436;SDS011;27178;49.460;10.850;2023-05-16T09:58:00;7.70;;;7.10;;
41436;SDS011;27178;49.460;10.850;2023-05-16T10:00:29;7.47;;;6.88;;
41436;SDS011;27178;49.460;10.850;2023-05-16T10:02:58;7.47;;;6.88;;
41436;SDS011;27178;49.460;10.850;2023-05-16T10:05:31;7.70;;;7.10;;
41436;SDS011;27178;49.460;10.850;2023-05-16T10:08:01;7.53;;;6.93;;
41436;SDS011;27178;49.460;10.850;2023-05-16T10:10:31;7.80;;;7.13;;
41436;SDS011;27178;49.460;10.850;2023-05-16T10:13:03;7.25;;;6.72;;
41436;SDS011;27178;49.460;10.850;2023-05-16T10:15:34;7.35;;;6.65;;
41436;SDS011;27178;49.460;10.850;2023-05-16T10:18:04;7.28;;;6.68;;
41436;SDS011;27178;49.460;10.850;2023-05-16T10:20:37;7.72;;;7.13;;
41436;SDS011;27178;49.460;10.850;2023-05-16T10:23:08;7.18;;;6.57;;
41436;SDS011;27178;49.460;10.850;2023-05-16T10:25:45;6.78;;;6.28;;
41436;SDS011;27178;49.460;10.850;2023-05-16T10:28:14;6.90;;;6.30;;
41436;SDS011;27178;49.460;10.850;2023-05-16T10:30:44;6.47;;;5.88;;
41436;SDS011;27178;49.460;10.850;2023-05-16T10:33:14;6.95;;;6.45;;
41436;SDS011;27178;49.460;10.850;2023-05-16T10:35:43;6.20;;;5.72;;
41436;SDS011;27178;49.460;10.850;2023-05-16T10:38:12;5.97;;;5.47;;
41436;SDS011;27178;49.460;10.850;2023-05-16T10:40:46;8.20;;;5.95;;
41436;SDS011;27178;49.460;10.850;2023-05-16T10:43:21;6.07;;;5.68;;
41436;SDS011;27178;49.460;10.850;2023-05-16T10:45:54;5.85;;;5.32;;
41436;SDS011;27178;49.460;10.850;2023-05-16T10:48:28;5.60;;;5.20;;
41436;SDS011;27178;49.460;10.850;2023-05-16T10:50:56;5.35;;;4.85;;
41436;SDS011;27178;49.460;10.850;2023-05-16T10:53:29;5.53;;;5.13;;
41436;SDS011;27178;49.460;10.850;2023-05-16T10:56:10;5.30;;;4.90;;
41436;SDS011;27178;49.460;10.850;2023-05-16T10:58:42;5.38;;;4.88;;
41436;SDS011;27178;49.460;10.850;2023-05-16T11:01:13;5.80;;;5.05;;
41436;SDS011;27178;49.460;10.850;2023-05-16T11:04:02;5.40;;;4.97;;
41436;SDS011;27178;49.460;10.850;2023-05-16T11:06:44;5.20;;;4.80;;
41436;SDS011;27178;49.460;10.850;2023-05-16T11:09:18;4.70;;;4.35;;
41436;SDS011;27178;49.460;10.850;2023-05-16T11:11:59;4.45;;;4.15;;
41436;SDS011;27178;49.460;10.850;2023-05-16T11:14:34;4.20;;;3.90;;
41436;SDS011;27178;49.460;10.850;2023-05-16T11:17:07;5.10;;;4.57;;
41436;SDS011;27178;49.460;10.850;2023-05-16T11:19:39;4.65;;;4.25;;
41436;SDS011;27178;49.460;10.850;2023-05-16T11:22:09;5.15;;;4.75;;
41436;SDS011;27178;49.460;10.850;2023-05-16T11:24:49;4.57;;;4.07;;
41436;SDS011;27178;49.460;10.850;2023-05-16T11:27:21;5.20;;;4.70;;
41436;SDS011;27178;49.460;10.850;2023-05-16T11:29:51;4.70;;;4.22;;
41436;SDS011;27178;49.460;10.850;2023-05-16T11:32:22;4.55;;;4.22;;
41436;SDS011;27178;49.460;10.850;2023-05-16T11:34:50;4.57;;;4.18;;
41436;SDS011;27178;49.460;10.850;2023-05-16T11:37:20;4.63;;;4.25;;
41436;SDS011;27178;49.460;10.850;2023-05-16T11:39:48;6.03;;;3.70;;
41436;SDS011;27178;49.460;10.850;2023-05-16T11:42:17;4.57;;;4.00;;
41436;SDS011;27178;49.460;10.850;2023-05-16T11:44:47;4.18;;;3.88;;
41436;SDS011;27178;49.460;10.850;2023-05-16T11:47:16;4.70;;;4.22;;
41436;SDS011;27178;49.460;10.850;2023-05-16T11:49:44;4.40;;;4.00;;
41436;SDS011;27178;49.460;10.850;2023-05-16T11:52:14;4.65;;;4.28;;
41436;SDS011;27178;49.460;10.850;2023-05-16T11:54:44;4.65;;;4.25;;
41436;SDS011;27178;49.460;10.850;2023-05-16T11:57:13;5.50;;;4.60;;
41436;SDS011;27178;49.460;10.850;2023-05-16T11:59:42;5.20;;;4.70;;
41436;SDS011;27178;49.460;10.850;2023-05-16T12:02:11;4.57;;;4.28;;
41436;SDS011;27178;49.460;10.850;2023-05-16T12:04:39;4.63;;;4.22;;
41436;SDS011;27178;49.460;10.850;2023-05-16T12:07:08;5.20;;;4.70;;
41436;SDS011;27178;49.460;10.850;2023-05-16T12:09:37;4.93;;;4.53;;
41436;SDS011;27178;49.460;10.850;2023-05-16T12:12:06;4.80;;;4.40;;
41436;SDS011;27178;49.460;10.850;2023-05-16T12:14:35;4.88;;;4.45;;
41436;SDS011;27178;49.460;10.850;2023-05-16T12:17:03;5.10;;;4.70;;
41436;SDS011;27178;49.460;10.850;2023-05-16T12:19:33;5.28;;;4.55;;
41436;SDS011;27178;49.460;10.850;2023-05-16T12:22:02;4.43;;;4.05;;
41436;SDS011;27178;49.460;10.850;2023-05-16T12:24:30;4.47;;;4.18;;
41436;SDS011;27178;49.460;10.850;2023-05-16T12:26:59;4.63;;;4.22;;
41436;SDS011;27178;49.460;10.850;2023-05-16T12:29:27;4.55;;;4.15;;
41436;SDS011;27178;49.460;10.850;2023-05-16T12:31:58;4.57;;;4.18;;
41436;SDS011;27178;49.460;10.850;2023-05-16T12:34:27;4.43;;;4.05;;
41436;SDS011;27178;49.460;10.850;2023-05-16T12:36:58;4.78;;;3.72;;
41436;SDS011;27178;49.460;10.850;2023-05-16T12:39:27;4.20;;;3.80;;
41436;SDS011;27178;49.460;10.850;2023-05-16T12:42:04;3.85;;;3.40;;
41436;SDS011;27178;49.460;10.850;2023-05-16T12:44:35;3.65;;;3.38;;
41436;SDS011;27178;49.460;10.850;2023-05-16T12:47:03;5.38;;;3.80;;
41436;SDS011;27178;49.460;10.850;2023-05-16T12:49:43;3.15;;;2.88;;
41436;SDS011;27178;49.460;10.850;2023-05-16T12:52:17;3.00;;;2.80;;
41436;SDS011;27178;49.460;10.850;2023-05-16T12:54:47;3.22;;;2.97;;
41436;SDS011;27178;49.460;10.850;2023-05-16T12:57:15;3.60;;;3.25;;
41436;SDS011;27178;49.460;10.850;2023-05-16T12:59:45;3.28;;;2.97;;
41436;SDS011;27178;49.460;10.850;2023-05-16T13:02:13;3.60;;;3.30;;
41436;SDS011;27178;49.460;10.850;2023-05-16T13:04:42;3.42;;;3.15;;
41436;SDS011;27178;49.460;10.850;2023-05-16T13:07:10;3.80;;;3.50;;
41436;SDS011;27178;49.460;10.850;2023-05-16T13:09:40;3.30;;;3.10;;
41436;SDS011;27178;49.460;10.850;2023-05-16T13:12:09;3.53;;;3.22;;
41436;SDS011;27178;49.460;10.850;2023-05-16T13:14:39;3.22;;;3.03;;
41436;SDS011;27178;49.460;10.850;2023-05-16T13:17:09;3.60;;;3.30;;
41436;SDS011;27178;49.460;10.850;2023-05-16T13:19:37;3.90;;;3.60;;
41436;SDS011;27178;49.460;10.850;2023-05-16T13:22:06;3.80;;;3.50;;
41436;SDS011;27178;49.460;10.850;2023-05-16T13:24:34;3.40;;;3.10;;
41436;SDS011;27178;49.460;10.850;2023-05-16T13:27:06;3.42;;;3.13;;
41436;SDS011;27178;49.460;10.850;2023-05-16T13:29:34;3.05;;;2.75;;
41436;SDS011;27178;49.460;10.850;2023-05-16T13:32:03;10.85;;;3.42;;
41436;SDS011;27178;49.460;10.850;2023-05-16T13:34:33;3.30;;;2.88;;
41436;SDS011;27178;49.460;10.850;2023-05-16T13:37:02;2.92;;;2.63;;
41436;SDS011;27178;49.460;10.850;2023-05-16T13:39:30;2.78;;;2.35;;
41436;SDS011;27178;49.460;10.850;2023-05-16T13:41:59;2.38;;;2.20;;
41436;SDS011;27178;49.460;10.850;2023-05-16T13:44:29;2.72;;;1.90;;
41436;SDS011;27178;49.460;10.850;2023-05-16T13:46:59;3.20;;;2.22;;
41436;SDS011;27178;49.460;10.850;2023-05-16T13:49:27;2.72;;;2.53;;
41436;SDS011;27178;49.460;10.850;2023-05-16T13:51:57;2.28;;;1.95;;
41436;SDS011;27178;49.460;10.850;2023-05-16T13:54:26;2.50;;;1.85;;
41436;SDS011;27178;49.460;10.850;2023-05-16T13:56:55;2.20;;;2.10;;
41436;SDS011;27178;49.460;10.850;2023-05-16T13:59:23;2.72;;;2.00;;
41436;SDS011;27178;49.460;10.850;2023-05-16T14:02:14;2.40;;;2.20;;
41436;SDS011;27178;49.460;10.850;2023-05-16T14:04:42;2.42;;;2.22;;
41436;SDS011;27178;49.460;10.850;2023-05-16T14:07:13;2.25;;;2.05;;
41436;SDS011;27178;49.460;10.850;2023-05-16T14:09:41;2.03;;;1.92;;
41436;SDS011;27178;49.460;10.850;2023-05-16T14:12:10;1.80;;;1.70;;
41436;SDS011;27178;49.460;10.850;2023-05-16T14:14:39;2.95;;;2.75;;
41436;SDS011;27178;49.460;10.850;2023-05-16T14:17:07;3.25;;;2.95;;
41436;SDS011;27178;49.460;10.850;2023-05-16T14:19:37;3.35;;;3.00;;
41436;SDS011;27178;49.460;10.850;2023-05-16T14:22:08;3.63;;;3.33;;
41436;SDS011;27178;49.460;10.850;2023-05-16T14:24:36;3.53;;;2.85;;
41436;SDS011;27178;49.460;10.850;2023-05-16T14:27:05;3.20;;;2.90;;
41436;SDS011;27178;49.460;10.850;2023-05-16T14:29:33;2.88;;;2.53;;
41436;SDS011;27178;49.460;10.850;2023-05-16T14:32:01;2.63;;;2.20;;
41436;SDS011;27178;49.460;10.850;2023-05-16T14:34:30;2.65;;;2.30;;
41436;SDS011;27178;49.460;10.850;2023-05-16T14:37:01;2.72;;;2.17;;
41436;SDS011;27178;49.460;10.850;2023-05-16T14:39:29;2.58;;;2.00;;
41436;SDS011;27178;49.460;10.850;2023-05-16T14:41:57;2.35;;;1.83;;
41436;SDS011;27178;49.460;10.850;2023-05-16T14:44:26;2.65;;;1.60;;
41436;SDS011;27178;49.460;10.850;2023-05-16T14:46:55;2.08;;;1.88;;
41436;SDS011;27178;49.460;10.850;2023-05-16T14:49:23;1.70;;;1.60;;